Lafayette Regional Airport
KLFT : now visible

Airfield :











YOU CAN JOIN US ON...

 
LOGIN :

Register | Disclaimer

   EN    FR    IT 

 









Legend :    VFR   Marginal VFR   IFR   Intensive IFR   Very Intensive IFR
Visi :
Ceiling :
>= 8 km
>= 3000ft
5 to 8 km
1000 to 3000 ft
1500m to 5 km
500 to 1000 ft
800 to 1500m
200 to 500 ft
< 800m
< 200 ft
Symbols :   Thunderstorms  Fog  Heavy snow  Heavy precipitations  Wind > 20 kt






- Airport Elevation : 42 ft
- IATA code : LFT


KLFT - Lafayette Regional

CURRENT METAR :
  • 261553Z 07003KT 10SM OVC055 21/17 A3005 RMK AO2 SLP175 T02060172

EXPIRED METARs :
  • 261453Z 00000KT 10SM OVC055 19/17 A3006 RMK AO2 SLP177 T01940167 51016
  • 261353Z 08003KT 10SM FEW008 BKN050 19/16 A3004 RMK AO2 SLP173 T01890161

TAF KLFT
Valid from the 26 at 12:00 until the 27 at 12:00 UTC


261125Z 2612/2712 06005KT P6SM SKC
FM261700 07008KT P6SM BKN040
FM270000 04004KT P6SM BKN050
FM270900 03008KT P6SM SCT009 BKN035
KZHU FIR / North America



MET'MAP, your aeronautical weather chart ! - Copyright ORBIFLY December 2007 - Disclaimer

ORBIFLY MET'MAP TEAM :

Programming & Development : Alexandra Zaïnal
Concept & original design : Baudouin d'Aumeries
Assistance for programming : Marc-Olivier Méhu
Technical & hardware support : Manuel Goepfert

Contact : metmap@orbifly.com




SOURCES & CREDITS :

   NOAA       Earth
Advisory